Time;durP1;ratioP1;P1;durP2;ratioP2;P2;SDS_P1;SDS_P2;PMS_P1;PMS_P2;Temp;Humidity;BMP_temperature;BMP_pressure;BME280_temperature;BME280_humidity;BME280_pressure;Samples;Min_cycle;Max_cycle;Signal;HPM_P1;HPM_P2
2023/12/14 00:01:24;;;;;;;6.55;3.55;;;;;;;;;;5035322;28;20128;-76
2023/12/14 00:03:50;;;;;;;7.03;3.75;;;;;;;;;;5037699;28;20498;-76
2023/12/14 00:06:15;;;;;;;5.93;4.10;;;;;;;;;;5027724;28;20036;-76
2023/12/14 00:08:40;;;;;;;5.55;4.05;;;;;;;;;;5037064;28;20405;-75
2023/12/14 00:11:07;;;;;;;6.05;3.90;;;;;;;;;;5036762;28;20033;-75
2023/12/14 00:13:33;;;;;;;7.32;4.22;;;;;;;;;;5052582;28;20087;-76
2023/12/14 00:15:59;;;;;;;5.95;3.75;;;;;;;;;;5037194;28;20033;-76
2023/12/14 00:18:25;;;;;;;3.92;2.97;;;;;;;;;;5021090;28;20041;-76
2023/12/14 00:20:50;;;;;;;5.05;3.40;;;;;;;;;;5027309;28;20039;-77
2023/12/14 00:23:16;;;;;;;4.72;3.63;;;;;;;;;;5040993;28;20033;-77
2023/12/14 00:25:41;;;;;;;6.22;3.72;;;;;;;;;;5021653;28;20128;-77
2023/12/14 00:28:06;;;;;;;6.18;3.85;;;;;;;;;;5037244;28;20445;-77
2023/12/14 00:30:32;;;;;;;7.65;4.07;;;;;;;;;;5036466;28;20143;-77
2023/12/14 00:32:57;;;;;;;6.68;4.13;;;;;;;;;;5036309;28;20094;-77
2023/12/14 00:35:23;;;;;;;5.28;3.58;;;;;;;;;;5026626;28;20109;-77
2023/12/14 00:37:48;;;;;;;5.70;3.97;;;;;;;;;;5036527;28;20112;-77
2023/12/14 00:40:13;;;;;;;7.22;4.50;;;;;;;;;;5038015;28;20115;-77
2023/12/14 00:42:39;;;;;;;5.90;4.35;;;;;;;;;;5044829;28;20033;-77
2023/12/14 00:45:04;;;;;;;6.15;3.97;;;;;;;;;;5035958;28;20488;-78
2023/12/14 00:47:30;;;;;;;6.28;4.05;;;;;;;;;;5042506;28;20049;-77
2023/12/14 00:49:55;;;;;;;3.47;2.22;;;;;;;;;;5026174;28;20032;-78
2023/12/14 00:52:21;;;;;;;5.63;3.95;;;;;;;;;;5037438;28;20037;-78
2023/12/14 00:54:46;;;;;;;2.67;1.83;;;;;;;;;;5048032;28;20045;-78
2023/12/14 00:57:11;;;;;;;4.10;3.05;;;;;;;;;;5038063;28;20033;-78
2023/12/14 00:59:37;;;;;;;6.32;4.15;;;;;;;;;;5027554;28;20506;-77
2023/12/14 01:02:02;;;;;;;7.05;4.35;;;;;;;;;;5037013;28;20099;-78
2023/12/14 01:04:27;;;;;;;8.35;4.68;;;;;;;;;;5027305;28;20532;-78
2023/12/14 01:06:53;;;;;;;7.82;4.40;;;;;;;;;;5036923;28;20120;-78
2023/12/14 01:09:18;;;;;;;8.27;4.65;;;;;;;;;;5037247;28;20033;-77
2023/12/14 01:11:44;;;;;;;7.65;4.90;;;;;;;;;;5031063;28;20807;-78
2023/12/14 01:14:09;;;;;;;7.97;4.55;;;;;;;;;;5042294;28;20040;-77
2023/12/14 01:16:34;;;;;;;7.75;4.18;;;;;;;;;;5034791;28;20088;-77
2023/12/14 01:19:00;;;;;;;7.28;4.72;;;;;;;;;;5026948;28;20110;-76
2023/12/14 01:21:25;;;;;;;7.65;4.93;;;;;;;;;;5037289;28;20132;-77
2023/12/14 01:23:52;;;;;;;7.25;4.68;;;;;;;;;;5037135;28;20055;-77
2023/12/14 01:26:18;;;;;;;3.75;2.83;;;;;;;;;;5036809;28;20086;-77
2023/12/14 01:28:43;;;;;;;2.83;2.15;;;;;;;;;;5035515;28;20040;-78
2023/12/14 01:31:09;;;;;;;7.55;4.60;;;;;;;;;;5034989;28;20100;-78
2023/12/14 01:33:34;;;;;;;9.13;4.75;;;;;;;;;;5033234;28;20045;-78
2023/12/14 01:35:59;;;;;;;6.35;4.00;;;;;;;;;;5077389;28;20044;-78
2023/12/14 01:38:25;;;;;;;6.40;4.07;;;;;;;;;;5060665;28;20402;-77
2023/12/14 01:40:51;;;;;;;6.38;4.53;;;;;;;;;;5066012;28;20043;-77
2023/12/14 01:43:16;;;;;;;7.18;4.32;;;;;;;;;;5076711;28;20680;-77
2023/12/14 01:45:41;;;;;;;6.85;4.55;;;;;;;;;;5072280;28;20031;-78
2023/12/14 01:48:07;;;;;;;6.60;4.18;;;;;;;;;;5067464;28;20721;-78
2023/12/14 01:50:32;;;;;;;6.88;3.58;;;;;;;;;;5078652;28;20048;-78
2023/12/14 01:52:58;;;;;;;8.00;4.15;;;;;;;;;;5071273;28;20570;-78
2023/12/14 01:55:25;;;;;;;6.95;4.25;;;;;;;;;;5077618;28;20040;-78
2023/12/14 01:57:52;;;;;;;6.28;3.90;;;;;;;;;;5077813;28;20570;-78
2023/12/14 02:00:41;;;;;;;8.68;4.25;;;;;;;;;;5065273;28;20040;-78
2023/12/14 02:03:06;;;;;;;6.18;3.88;;;;;;;;;;5077118;28;20040;-77
2023/12/14 02:05:31;;;;;;;6.63;3.38;;;;;;;;;;5075393;28;20078;-78
2023/12/14 02:07:57;;;;;;;8.75;4.55;;;;;;;;;;5061297;28;20123;-77
2023/12/14 02:10:23;;;;;;;7.78;4.45;;;;;;;;;;5070058;28;20055;-78
2023/12/14 02:12:48;;;;;;;4.75;2.70;;;;;;;;;;5061687;28;20028;-78
2023/12/14 02:15:13;;;;;;;9.68;4.43;;;;;;;;;;5075964;28;20111;-78
2023/12/14 02:17:39;;;;;;;7.05;4.50;;;;;;;;;;5072125;28;20513;-78
2023/12/14 02:20:05;;;;;;;8.70;4.85;;;;;;;;;;5075245;28;20047;-77
2023/12/14 02:22:52;;;;;;;9.40;4.68;;;;;;;;;;5069265;28;20171;-77
2023/12/14 02:25:18;;;;;;;10.77;5.32;;;;;;;;;;5064986;28;20419;-77
2023/12/14 02:27:44;;;;;;;9.55;4.95;;;;;;;;;;5075931;28;20411;-78
2023/12/14 02:30:11;;;;;;;8.60;4.43;;;;;;;;;;5074661;28;20028;-78
2023/12/14 02:32:36;;;;;;;5.75;2.63;;;;;;;;;;5075319;28;20059;-78
2023/12/14 02:35:02;;;;;;;3.15;1.80;;;;;;;;;;5074785;28;20036;-78
2023/12/14 02:37:27;;;;;;;8.52;4.57;;;;;;;;;;5077529;28;20070;-77
2023/12/14 02:39:53;;;;;;;9.20;4.95;;;;;;;;;;5072502;28;20059;-78
2023/12/14 02:42:18;;;;;;;8.40;4.22;;;;;;;;;;5076132;28;20069;-77
2023/12/14 02:44:44;;;;;;;10.35;5.35;;;;;;;;;;5074144;28;20031;-77
2023/12/14 02:47:09;;;;;;;9.48;5.10;;;;;;;;;;5073389;28;20424;-78
2023/12/14 02:49:35;;;;;;;6.28;3.67;;;;;;;;;;5070084;28;20036;-77
2023/12/14 02:52:00;;;;;;;7.68;4.35;;;;;;;;;;5071911;28;20032;-77
2023/12/14 02:54:25;;;;;;;10.57;5.35;;;;;;;;;;5063132;28;20443;-78
2023/12/14 02:56:51;;;;;;;7.80;4.60;;;;;;;;;;5074126;28;20036;-78
2023/12/14 02:59:16;;;;;;;7.93;4.22;;;;;;;;;;5077559;28;20537;-78
2023/12/14 03:01:42;;;;;;;3.92;2.40;;;;;;;;;;5076317;28;20036;-78
2023/12/14 03:04:07;;;;;;;6.43;4.10;;;;;;;;;;5074541;28;20481;-78
2023/12/14 03:06:33;;;;;;;6.47;3.70;;;;;;;;;;5073349;28;20028;-78
2023/12/14 03:08:59;;;;;;;5.60;3.67;;;;;;;;;;5063513;28;20497;-78
2023/12/14 03:11:25;;;;;;;8.82;5.03;;;;;;;;;;5075442;28;20128;-77
2023/12/14 03:13:50;;;;;;;6.47;3.95;;;;;;;;;;5075200;28;20661;-77
2023/12/14 03:16:18;;;;;;;8.18;5.05;;;;;;;;;;5074799;28;20044;-78
2023/12/14 03:18:44;;;;;;;10.10;5.68;;;;;;;;;;5069883;28;20069;-77
2023/12/14 03:21:10;;;;;;;8.10;4.53;;;;;;;;;;5063088;28;20063;-78
2023/12/14 03:23:35;;;;;;;5.43;3.50;;;;;;;;;;5068518;28;20036;-78
2023/12/14 03:26:01;;;;;;;10.40;6.07;;;;;;;;;;5074369;28;20029;-77
2023/12/14 03:28:27;;;;;;;10.52;5.63;;;;;;;;;;5072790;28;20044;-77
2023/12/14 03:30:52;;;;;;;6.53;3.65;;;;;;;;;;5074070;28;20066;-78
2023/12/14 03:33:18;;;;;;;9.82;5.72;;;;;;;;;;5048413;22;20249;-74
2023/12/14 03:35:44;;;;;;;9.65;5.45;;;;;;;;;;5008174;28;20041;-74
2023/12/14 03:38:09;;;;;;;10.35;5.35;;;;;;;;;;5018354;28;20393;-74
2023/12/14 03:40:35;;;;;;;7.45;5.05;;;;;;;;;;5016882;28;20041;-74
2023/12/14 03:43:02;;;;;;;5.20;3.20;;;;;;;;;;5017092;28;20540;-74
2023/12/14 03:45:27;;;;;;;4.55;3.03;;;;;;;;;;5016144;28;20045;-75
2023/12/14 03:47:53;;;;;;;5.05;2.50;;;;;;;;;;5016842;28;20121;-74
2023/12/14 03:50:18;;;;;;;5.07;3.25;;;;;;;;;;5005146;28;20087;-74
2023/12/14 03:52:43;;;;;;;4.57;3.28;;;;;;;;;;5016597;28;20042;-74
2023/12/14 03:55:09;;;;;;;7.05;3.33;;;;;;;;;;5002380;28;20049;-74
2023/12/14 03:57:34;;;;;;;5.03;3.10;;;;;;;;;;5006950;28;20125;-73
2023/12/14 04:00:00;;;;;;;3.33;2.30;;;;;;;;;;4996661;28;20030;-74
2023/12/14 04:02:25;;;;;;;5.97;3.42;;;;;;;;;;4997384;28;20049;-75
2023/12/14 04:04:51;;;;;;;4.93;3.67;;;;;;;;;;5004981;28;20124;-74
2023/12/14 04:07:19;;;;;;;5.55;3.75;;;;;;;;;;5017519;28;20405;-75
2023/12/14 04:09:45;;;;;;;6.93;3.40;;;;;;;;;;5010465;28;20668;-75
2023/12/14 04:12:11;;;;;;;5.25;3.70;;;;;;;;;;4998502;28;20033;-73
2023/12/14 04:14:36;;;;;;;3.42;2.38;;;;;;;;;;4994886;28;20117;-74
2023/12/14 04:17:02;;;;;;;3.35;2.30;;;;;;;;;;4984909;28;20108;-74
2023/12/14 04:19:28;;;;;;;1.08;0.98;;;;;;;;;;5004575;28;20084;-74
2023/12/14 04:21:53;;;;;;;2.20;1.90;;;;;;;;;;4998215;28;20044;-74
2023/12/14 04:24:18;;;;;;;2.50;1.70;;;;;;;;;;5003651;28;20560;-74
2023/12/14 04:26:44;;;;;;;3.03;1.92;;;;;;;;;;4991548;28;20041;-74
2023/12/14 04:29:10;;;;;;;3.42;1.70;;;;;;;;;;4995527;28;20128;-77
2023/12/14 04:31:35;;;;;;;1.80;1.30;;;;;;;;;;4988563;28;20044;-74
2023/12/14 04:34:00;;;;;;;2.20;1.25;;;;;;;;;;4998835;28;20708;-74
2023/12/14 04:36:26;;;;;;;3.60;1.17;;;;;;;;;;4982225;28;20510;-74
2023/12/14 04:38:51;;;;;;;2.00;1.40;;;;;;;;;;4982565;28;20056;-74
2023/12/14 04:41:17;;;;;;;1.42;1.20;;;;;;;;;;4998201;28;20046;-74
2023/12/14 04:43:42;;;;;;;1.63;1.38;;;;;;;;;;4999021;28;20107;-74
2023/12/14 04:46:07;;;;;;;2.17;1.60;;;;;;;;;;5006076;28;20060;-73
2023/12/14 04:48:33;;;;;;;3.13;2.00;;;;;;;;;;4997560;28;20045;-73
2023/12/14 04:50:58;;;;;;;1.33;1.20;;;;;;;;;;5012346;28;20049;-74
2023/12/14 04:53:24;;;;;;;2.53;1.67;;;;;;;;;;4986364;28;20429;-76
2023/12/14 04:55:49;;;;;;;3.10;2.13;;;;;;;;;;4983763;28;20030;-76
2023/12/14 04:58:14;;;;;;;2.35;2.15;;;;;;;;;;5010584;28;20041;-77
2023/12/14 05:00:40;;;;;;;2.65;1.73;;;;;;;;;;5011616;28;20096;-75
2023/12/14 05:03:05;;;;;;;3.08;2.10;;;;;;;;;;4976469;28;20418;-76
2023/12/14 05:05:31;;;;;;;2.42;1.88;;;;;;;;;;4998578;28;20826;-76
2023/12/14 05:07:56;;;;;;;2.45;1.50;;;;;;;;;;5012652;28;20029;-76
2023/12/14 05:10:22;;;;;;;1.85;1.60;;;;;;;;;;5012487;28;20030;-75
2023/12/14 05:12:47;;;;;;;1.73;1.27;;;;;;;;;;5016624;28;20041;-75
2023/12/14 05:15:13;;;;;;;2.05;1.38;;;;;;;;;;5000003;28;20026;-75
2023/12/14 05:17:40;;;;;;;1.60;1.13;;;;;;;;;;4969930;28;20127;-75
2023/12/14 05:20:08;;;;;;;1.98;1.42;;;;;;;;;;4995092;28;20375;-75
2023/12/14 05:22:33;;;;;;;1.35;1.20;;;;;;;;;;4992371;28;20113;-76
2023/12/14 05:24:59;;;;;;;2.25;1.33;;;;;;;;;;4996400;28;20058;-76
2023/12/14 05:27:25;;;;;;;1.63;1.38;;;;;;;;;;4995763;28;20034;-74
2023/12/14 05:29:50;;;;;;;1.20;1.02;;;;;;;;;;4990114;28;20117;-75
2023/12/14 05:32:15;;;;;;;1.30;0.60;;;;;;;;;;4988906;28;20430;-76
2023/12/14 05:34:41;;;;;;;1.88;1.40;;;;;;;;;;4998180;28;20045;-75
2023/12/14 05:37:06;;;;;;;1.50;1.10;;;;;;;;;;5013676;28;20044;-75
2023/12/14 05:39:32;;;;;;;1.58;1.30;;;;;;;;;;5012971;28;20426;-76
2023/12/14 05:41:57;;;;;;;1.10;1.00;;;;;;;;;;4987940;28;20038;-75
2023/12/14 05:44:22;;;;;;;1.05;0.95;;;;;;;;;;5002330;28;20051;-75
2023/12/14 05:46:49;;;;;;;1.17;1.10;;;;;;;;;;4978683;28;20518;-75
2023/12/14 05:49:14;;;;;;;1.17;0.85;;;;;;;;;;4987251;28;20034;-76
2023/12/14 05:51:39;;;;;;;2.13;0.80;;;;;;;;;;4997207;28;20183;-75
2023/12/14 05:54:05;;;;;;;1.83;1.15;;;;;;;;;;5007951;28;20513;-74
2023/12/14 05:56:30;;;;;;;3.13;1.30;;;;;;;;;;4999883;28;20042;-75
2023/12/14 05:58:56;;;;;;;1.05;0.90;;;;;;;;;;4968350;28;20042;-77
2023/12/14 06:01:23;;;;;;;1.73;1.10;;;;;;;;;;4992812;28;20496;-76
2023/12/14 06:03:49;;;;;;;1.38;1.20;;;;;;;;;;4999461;28;20045;-75
2023/12/14 06:06:14;;;;;;;0.80;0.80;;;;;;;;;;4994872;28;20038;-79
2023/12/14 06:08:40;;;;;;;2.83;1.33;;;;;;;;;;4985829;28;20049;-77
2023/12/14 06:11:06;;;;;;;1.25;1.02;;;;;;;;;;4978916;28;20057;-75
2023/12/14 06:13:32;;;;;;;1.55;1.10;;;;;;;;;;4963984;28;20048;-75
2023/12/14 06:15:57;;;;;;;2.10;0.60;;;;;;;;;;4993548;28;20153;-76
2023/12/14 06:18:22;;;;;;;1.23;0.90;;;;;;;;;;4983071;28;20065;-76
2023/12/14 06:20:48;;;;;;;0.85;0.85;;;;;;;;;;4995290;28;20445;-76
2023/12/14 06:23:14;;;;;;;0.68;0.40;;;;;;;;;;4996167;28;20081;-76
2023/12/14 06:25:39;;;;;;;2.20;1.50;;;;;;;;;;5008227;28;20053;-76
2023/12/14 06:28:05;;;;;;;0.70;0.60;;;;;;;;;;4984374;28;20040;-76
2023/12/14 06:30:30;;;;;;;1.25;1.08;;;;;;;;;;4975925;28;20038;-77
2023/12/14 06:32:55;;;;;;;2.08;1.35;;;;;;;;;;4997448;28;20053;-76
2023/12/14 06:35:21;;;;;;;1.60;1.45;;;;;;;;;;4996095;28;20109;-76
2023/12/14 06:37:47;;;;;;;1.80;1.33;;;;;;;;;;4996073;28;20030;-76
2023/12/14 06:40:13;;;;;;;0.47;0.35;;;;;;;;;;4994388;28;20034;-76
2023/12/14 06:42:38;;;;;;;1.25;1.13;;;;;;;;;;4987110;28;20046;-77
2023/12/14 06:45:04;;;;;;;2.03;1.38;;;;;;;;;;4998833;28;20037;-76
2023/12/14 06:47:29;;;;;;;1.50;1.40;;;;;;;;;;4960437;28;20046;-76
2023/12/14 06:49:56;;;;;;;1.60;1.17;;;;;;;;;;5005566;28;20029;-76
2023/12/14 06:52:23;;;;;;;2.03;1.45;;;;;;;;;;4998564;28;20041;-76
2023/12/14 06:54:48;;;;;;;1.65;1.02;;;;;;;;;;4999988;28;20100;-76
2023/12/14 06:57:14;;;;;;;2.13;1.92;;;;;;;;;;4969318;28;20034;-76
2023/12/14 06:59:39;;;;;;;2.65;1.90;;;;;;;;;;4996386;28;20044;-76
2023/12/14 07:02:06;;;;;;;1.15;1.05;;;;;;;;;;5001824;28;20417;-76
2023/12/14 07:04:32;;;;;;;2.35;1.67;;;;;;;;;;4999980;28;20601;-76
2023/12/14 07:06:58;;;;;;;1.65;1.15;;;;;;;;;;4997348;28;20138;-78
2023/12/14 07:09:24;;;;;;;2.88;1.60;;;;;;;;;;4984531;28;20052;-76
2023/12/14 07:11:49;;;;;;;2.15;0.93;;;;;;;;;;4990883;28;20383;-76
2023/12/14 07:14:14;;;;;;;2.15;1.77;;;;;;;;;;5000002;28;20060;-76
2023/12/14 07:16:41;;;;;;;4.90;2.33;;;;;;;;;;4998802;28;20048;-76
2023/12/14 07:19:06;;;;;;;3.55;2.08;;;;;;;;;;4993771;28;20030;-77
2023/12/14 07:21:31;;;;;;;3.47;2.25;;;;;;;;;;4991351;28;20128;-77
2023/12/14 07:23:57;;;;;;;5.15;2.63;;;;;;;;;;4987130;28;20116;-77
2023/12/14 07:26:23;;;;;;;5.05;2.90;;;;;;;;;;4976976;28;20038;-77
2023/12/14 07:28:48;;;;;;;3.92;2.35;;;;;;;;;;5000561;28;20045;-77
2023/12/14 07:31:14;;;;;;;3.88;2.53;;;;;;;;;;4998221;28;20050;-77
2023/12/14 07:33:39;;;;;;;3.63;1.90;;;;;;;;;;5007120;28;20067;-77
2023/12/14 07:36:05;;;;;;;3.47;2.22;;;;;;;;;;5004820;28;20041;-77
2023/12/14 07:38:31;;;;;;;3.67;2.08;;;;;;;;;;5003317;28;20548;-77
2023/12/14 07:40:56;;;;;;;4.95;2.67;;;;;;;;;;4986790;28;20041;-77
2023/12/14 07:43:22;;;;;;;3.22;2.15;;;;;;;;;;5000614;28;20033;-76
2023/12/14 07:45:48;;;;;;;3.45;2.30;;;;;;;;;;4985016;28;20709;-77
2023/12/14 07:48:14;;;;;;;5.28;2.95;;;;;;;;;;4983794;28;20121;-77
2023/12/14 07:50:39;;;;;;;3.60;2.13;;;;;;;;;;5003396;28;20042;-76
2023/12/14 07:53:04;;;;;;;3.70;2.70;;;;;;;;;;4986441;28;20030;-76
2023/12/14 07:55:31;;;;;;;5.85;3.55;;;;;;;;;;4991135;28;20049;-76
2023/12/14 07:57:56;;;;;;;1.75;1.40;;;;;;;;;;4985469;28;20069;-77
2023/12/14 08:00:22;;;;;;;4.40;2.13;;;;;;;;;;4986518;28;20037;-76
2023/12/14 08:02:47;;;;;;;2.95;1.63;;;;;;;;;;4982922;28;20042;-76
2023/12/14 08:05:12;;;;;;;2.50;1.50;;;;;;;;;;4981431;28;20037;-77
2023/12/14 08:07:38;;;;;;;3.97;2.72;;;;;;;;;;4991529;28;20368;-77
2023/12/14 08:10:04;;;;;;;6.68;3.58;;;;;;;;;;4972820;28;20059;-77
2023/12/14 08:12:29;;;;;;;5.55;3.63;;;;;;;;;;4996567;28;20041;-77
2023/12/14 08:14:54;;;;;;;5.85;3.60;;;;;;;;;;5003666;28;20030;-77
2023/12/14 08:17:21;;;;;;;2.85;2.20;;;;;;;;;;5005537;28;20042;-77
2023/12/14 08:19:46;;;;;;;6.05;2.92;;;;;;;;;;4994971;28;20041;-77
2023/12/14 08:22:12;;;;;;;3.45;1.85;;;;;;;;;;4993991;28;20494;-77
2023/12/14 08:24:41;;;;;;;4.32;2.95;;;;;;;;;;5006112;28;20386;-77
2023/12/14 08:27:07;;;;;;;4.05;2.63;;;;;;;;;;5017613;28;20037;-76
2023/12/14 08:29:32;;;;;;;4.93;2.90;;;;;;;;;;5005371;28;20742;-77
2023/12/14 08:31:59;;;;;;;6.40;3.53;;;;;;;;;;4988552;28;20050;-77
2023/12/14 08:34:27;;;;;;;2.63;1.85;;;;;;;;;;5003272;28;20112;-77
2023/12/14 08:36:52;;;;;;;3.83;2.83;;;;;;;;;;4973040;28;20041;-76
2023/12/14 08:39:18;;;;;;;4.40;2.72;;;;;;;;;;4987558;28;20034;-77
2023/12/14 08:41:46;;;;;;;3.40;2.10;;;;;;;;;;4983615;28;20071;-77
2023/12/14 08:44:12;;;;;;;3.85;1.90;;;;;;;;;;4981872;28;20133;-76
2023/12/14 08:46:46;;;;;;;4.47;3.25;;;;;;;;;;4983139;28;20522;-77
2023/12/14 08:49:12;;;;;;;4.25;3.42;;;;;;;;;;4981036;28;20258;-77
2023/12/14 08:51:39;;;;;;;3.10;1.83;;;;;;;;;;4989066;28;20050;-76
2023/12/14 08:54:05;;;;;;;4.45;3.38;;;;;;;;;;4983209;28;20036;-77
2023/12/14 08:56:31;;;;;;;3.33;2.08;;;;;;;;;;4997794;28;20045;-76
2023/12/14 08:58:57;;;;;;;3.60;1.50;;;;;;;;;;4988069;28;20576;-77
2023/12/14 09:01:23;;;;;;;3.70;2.80;;;;;;;;;;5010357;28;20064;-77
2023/12/14 09:03:49;;;;;;;3.95;2.50;;;;;;;;;;4991877;28;20034;-77
2023/12/14 09:06:16;;;;;;;2.50;2.00;;;;;;;;;;4998214;28;20079;-77
2023/12/14 09:08:41;;;;;;;2.13;1.42;;;;;;;;;;4998461;28;20129;-77
2023/12/14 09:11:07;;;;;;;2.28;1.67;;;;;;;;;;4999923;28;20129;-77
2023/12/14 09:13:33;;;;;;;2.83;2.40;;;;;;;;;;5003054;28;20042;-77
2023/12/14 09:15:58;;;;;;;3.58;2.88;;;;;;;;;;5003143;28;20529;-76
2023/12/14 09:18:24;;;;;;;1.73;1.33;;;;;;;;;;4987913;28;20030;-77
2023/12/14 09:20:49;;;;;;;3.63;2.85;;;;;;;;;;4981677;28;20085;-77
2023/12/14 09:23:16;;;;;;;5.28;3.10;;;;;;;;;;4982640;28;20545;-76
2023/12/14 09:25:41;;;;;;;4.10;2.42;;;;;;;;;;4989411;28;20038;-76
2023/12/14 09:28:07;;;;;;;7.68;5.13;;;;;;;;;;5010213;28;20100;-76
2023/12/14 09:30:33;;;;;;;4.47;2.95;;;;;;;;;;4984683;28;20069;-76
2023/12/14 09:32:58;;;;;;;2.65;1.60;;;;;;;;;;4988449;28;20131;-76
2023/12/14 09:35:23;;;;;;;3.13;2.75;;;;;;;;;;5001063;28;20042;-76
2023/12/14 09:37:49;;;;;;;6.22;4.78;;;;;;;;;;5002411;28;20041;-76
2023/12/14 09:40:16;;;;;;;4.18;3.10;;;;;;;;;;4987432;28;20060;-75
2023/12/14 09:42:42;;;;;;;22.40;13.38;;;;;;;;;;4993227;28;20120;-76
2023/12/14 09:45:09;;;;;;;4.95;3.05;;;;;;;;;;4996030;28;20039;-76
2023/12/14 09:47:36;;;;;;;8.45;6.22;;;;;;;;;;4998304;28;20037;-76
2023/12/14 09:50:03;;;;;;;5.07;3.78;;;;;;;;;;4985903;28;20655;-75
2023/12/14 09:52:28;;;;;;;3.00;2.22;;;;;;;;;;4978834;28;20041;-75
2023/12/14 09:54:54;;;;;;;4.75;4.32;;;;;;;;;;4991132;28;20402;-76
2023/12/14 09:57:20;;;;;;;5.05;4.40;;;;;;;;;;5015847;28;20037;-76
2023/12/14 09:59:52;;;;;;;7.72;5.43;;;;;;;;;;4997811;28;20038;-76
2023/12/14 10:02:18;;;;;;;5.05;3.30;;;;;;;;;;4971861;28;20046;-76
2023/12/14 10:04:44;;;;;;;3.83;2.55;;;;;;;;;;4998401;28;20033;-76
2023/12/14 10:07:09;;;;;;;3.50;2.50;;;;;;;;;;4980578;28;20870;-76
2023/12/14 10:09:37;;;;;;;5.35;3.80;;;;;;;;;;4984115;28;20038;-76
2023/12/14 10:12:08;;;;;;;5.70;4.50;;;;;;;;;;4979622;28;20033;-76
2023/12/14 10:14:35;;;;;;;4.72;3.88;;;;;;;;;;4983246;28;20442;-76
2023/12/14 10:17:31;;;;;;;5.00;3.63;;;;;;;;;;5013608;28;20052;-75
2023/12/14 10:19:57;;;;;;;2.78;2.05;;;;;;;;;;4976029;28;20042;-76
2023/12/14 10:22:28;;;;;;;7.43;4.07;;;;;;;;;;5014618;28;20856;-78
2023/12/14 10:24:53;;;;;;;5.28;3.63;;;;;;;;;;5013306;28;20072;-78
2023/12/14 10:27:20;;;;;;;5.22;3.90;;;;;;;;;;4987925;28;20034;-78
2023/12/14 10:29:46;;;;;;;2.33;1.63;;;;;;;;;;4983108;28;20134;-78
2023/12/14 10:32:12;;;;;;;7.07;4.18;;;;;;;;;;4992855;28;20036;-78
2023/12/14 10:34:38;;;;;;;2.78;2.42;;;;;;;;;;5000573;28;20037;-78
2023/12/14 10:37:06;;;;;;;5.57;3.45;;;;;;;;;;5016151;28;20072;-78
2023/12/14 10:39:33;;;;;;;7.18;4.18;;;;;;;;;;4992999;28;20048;-78
2023/12/14 10:42:02;;;;;;;6.20;3.75;;;;;;;;;;4983001;28;20121;-76
2023/12/14 10:44:28;;;;;;;4.78;2.72;;;;;;;;;;4995014;28;20034;-78
2023/12/14 10:46:58;;;;;;;6.35;4.28;;;;;;;;;;4997646;28;20124;-78
2023/12/14 10:49:25;;;;;;;4.30;2.22;;;;;;;;;;5005194;28;20042;-78
2023/12/14 10:51:56;;;;;;;7.93;4.60;;;;;;;;;;4975769;28;20530;-78
2023/12/14 10:54:24;;;;;;;7.93;3.92;;;;;;;;;;5021306;28;20491;-78
2023/12/14 10:56:54;;;;;;;6.90;3.60;;;;;;;;;;5009041;28;20045;-78
2023/12/14 10:59:19;;;;;;;6.65;3.53;;;;;;;;;;4987801;28;20049;-78
2023/12/14 11:01:51;;;;;;;4.75;3.00;;;;;;;;;;4988921;28;20042;-77
2023/12/14 11:04:16;;;;;;;3.83;2.40;;;;;;;;;;5020597;28;20444;-77
2023/12/14 11:06:46;;;;;;;6.40;3.42;;;;;;;;;;5008281;28;20042;-77
2023/12/14 11:09:14;;;;;;;5.50;3.13;;;;;;;;;;4982845;28;20038;-75
2023/12/14 11:11:57;;;;;;;5.72;3.33;;;;;;;;;;4980444;28;20045;-78
2023/12/14 11:14:24;;;;;;;3.28;1.90;;;;;;;;;;5007216;28;20049;-78
2023/12/14 11:16:54;;;;;;;6.85;3.85;;;;;;;;;;4979666;28;20042;-78
2023/12/14 11:19:25;;;;;;;5.25;2.90;;;;;;;;;;5001060;28;20044;-77
2023/12/14 11:21:53;;;;;;;6.72;3.65;;;;;;;;;;4987149;28;20120;-77
2023/12/14 11:24:18;;;;;;;5.55;2.92;;;;;;;;;;5012156;28;20052;-77
2023/12/14 11:26:44;;;;;;;4.75;2.72;;;;;;;;;;5011241;28;20033;-77
2023/12/14 11:29:09;;;;;;;5.43;3.10;;;;;;;;;;4999576;28;20049;-78
2023/12/14 11:31:35;;;;;;;4.68;2.80;;;;;;;;;;4971704;28;20046;-75
2023/12/14 11:34:03;;;;;;;4.60;2.88;;;;;;;;;;4979446;28;20521;-77
2023/12/14 11:36:28;;;;;;;3.40;2.25;;;;;;;;;;4997392;28;20045;-77
2023/12/14 11:38:55;;;;;;;4.78;3.28;;;;;;;;;;4978364;28;20034;-77
2023/12/14 11:41:25;;;;;;;5.25;2.97;;;;;;;;;;4986938;28;20121;-78
2023/12/14 11:43:51;;;;;;;5.22;2.92;;;;;;;;;;4988226;28;20129;-77
2023/12/14 11:46:17;;;;;;;5.68;3.05;;;;;;;;;;5002443;28;20048;-77
2023/12/14 11:48:46;;;;;;;4.47;2.42;;;;;;;;;;4999128;28;20083;-77
2023/12/14 11:51:12;;;;;;;4.63;2.58;;;;;;;;;;4995919;28;20034;-77
2023/12/14 11:53:38;;;;;;;3.85;2.78;;;;;;;;;;5017713;28;20037;-77
2023/12/14 11:56:05;;;;;;;6.47;3.28;;;;;;;;;;5021077;28;20033;-77
2023/12/14 11:58:34;;;;;;;6.85;4.25;;;;;;;;;;5008443;28;20045;-77
2023/12/14 12:01:16;;;;;;;5.15;3.10;;;;;;;;;;5002568;28;20037;-78
2023/12/14 12:03:43;;;;;;;6.32;3.47;;;;;;;;;;5008917;28;20042;-77
2023/12/14 12:06:27;;;;;;;2.72;1.67;;;;;;;;;;5008244;28;20034;-77
2023/12/14 12:08:53;;;;;;;6.18;3.60;;;;;;;;;;5007650;28;20644;-78
2023/12/14 12:11:21;;;;;;;6.57;4.18;;;;;;;;;;5014332;28;20092;-77
2023/12/14 12:13:56;;;;;;;3.35;2.55;;;;;;;;;;5020322;28;20101;-77
2023/12/14 12:16:22;;;;;;;2.53;1.60;;;;;;;;;;5006087;28;20069;-77
2023/12/14 12:18:48;;;;;;;4.88;2.55;;;;;;;;;;5006434;28;20038;-78
2023/12/14 12:21:13;;;;;;;1.80;1.48;;;;;;;;;;5011359;28;20520;-78
2023/12/14 12:23:41;;;;;;;4.65;3.30;;;;;;;;;;5014965;28;20101;-78
2023/12/14 12:26:07;;;;;;;6.10;3.78;;;;;;;;;;4998588;28;20026;-78
2023/12/14 12:28:32;;;;;;;5.15;3.15;;;;;;;;;;5003473;28;20072;-78
2023/12/14 12:30:59;;;;;;;6.10;3.65;;;;;;;;;;5022593;28;20037;-78
2023/12/14 12:33:25;;;;;;;3.78;2.78;;;;;;;;;;5006442;28;20034;-78
2023/12/14 12:35:51;;;;;;;2.95;1.88;;;;;;;;;;4995775;28;20034;-78
2023/12/14 12:38:18;;;;;;;5.55;3.42;;;;;;;;;;5013866;28;20041;-78
2023/12/14 12:40:44;;;;;;;5.32;3.25;;;;;;;;;;4985374;28;20034;-78
2023/12/14 12:43:10;;;;;;;5.22;3.75;;;;;;;;;;5016306;28;20040;-78
2023/12/14 12:45:36;;;;;;;5.53;3.20;;;;;;;;;;5017451;28;20048;-78
2023/12/14 12:48:04;;;;;;;6.35;4.15;;;;;;;;;;5024221;28;20460;-77
2023/12/14 12:50:29;;;;;;;6.65;3.90;;;;;;;;;;4979914;28;20655;-77
2023/12/14 12:52:55;;;;;;;4.22;2.95;;;;;;;;;;5009576;28;20033;-78
2023/12/14 12:55:21;;;;;;;5.00;3.47;;;;;;;;;;5016653;28;20068;-78
2023/12/14 12:57:48;;;;;;;5.65;3.47;;;;;;;;;;5000080;28;20037;-78
2023/12/14 13:00:15;;;;;;;6.57;3.90;;;;;;;;;;5023372;28;20056;-78
2023/12/14 13:02:42;;;;;;;6.97;4.20;;;;;;;;;;4997238;28;20046;-78
2023/12/14 13:05:08;;;;;;;5.88;3.67;;;;;;;;;;5005444;28;20605;-78
2023/12/14 13:07:34;;;;;;;5.68;3.83;;;;;;;;;;5005314;28;20546;-78
2023/12/14 13:09:59;;;;;;;6.18;3.97;;;;;;;;;;5004799;28;20041;-78
2023/12/14 13:12:26;;;;;;;4.68;3.03;;;;;;;;;;5015720;28;20096;-77
2023/12/14 13:14:51;;;;;;;5.03;3.53;;;;;;;;;;5022032;28;20033;-78
2023/12/14 13:17:17;;;;;;;4.28;3.30;;;;;;;;;;4993716;28;20053;-78
2023/12/14 13:19:44;;;;;;;3.67;2.83;;;;;;;;;;5023707;28;20152;-78
2023/12/14 13:22:11;;;;;;;3.63;2.17;;;;;;;;;;5023592;28;20264;-78
2023/12/14 13:24:36;;;;;;;4.80;2.85;;;;;;;;;;5023570;28;20120;-78
2023/12/14 13:27:02;;;;;;;4.53;2.88;;;;;;;;;;5011556;28;20210;-78
2023/12/14 13:29:30;;;;;;;3.50;1.80;;;;;;;;;;4995835;28;20057;-78
2023/12/14 13:31:56;;;;;;;2.92;2.20;;;;;;;;;;4994237;28;20030;-78
2023/12/14 13:34:21;;;;;;;2.78;1.75;;;;;;;;;;5004011;28;20485;-78
2023/12/14 13:36:47;;;;;;;2.97;2.20;;;;;;;;;;5004640;28;20062;-78
2023/12/14 13:39:12;;;;;;;3.75;2.63;;;;;;;;;;5005116;28;20056;-78
2023/12/14 13:41:38;;;;;;;4.30;2.15;;;;;;;;;;5010760;28;20089;-78
2023/12/14 13:44:03;;;;;;;2.25;1.65;;;;;;;;;;5004198;28;20108;-78
2023/12/14 13:46:29;;;;;;;1.48;1.20;;;;;;;;;;5009937;28;20450;-78
2023/12/14 13:48:54;;;;;;;1.50;1.17;;;;;;;;;;4999611;28;20383;-78
2023/12/14 13:51:19;;;;;;;2.25;1.75;;;;;;;;;;4982996;28;20602;-78
2023/12/14 13:53:45;;;;;;;3.38;1.88;;;;;;;;;;5003662;28;20041;-77
2023/12/14 13:56:10;;;;;;;1.85;1.33;;;;;;;;;;4988488;28;20061;-78
2023/12/14 13:58:38;;;;;;;2.08;1.45;;;;;;;;;;5003715;28;20041;-77
2023/12/14 14:01:09;;;;;;;2.05;1.73;;;;;;;;;;4988585;28;20038;-77
2023/12/14 14:03:37;;;;;;;2.58;1.60;;;;;;;;;;4991950;28;20553;-77
2023/12/14 14:06:03;;;;;;;2.38;1.88;;;;;;;;;;5021428;28;20041;-78
2023/12/14 14:08:28;;;;;;;2.42;1.65;;;;;;;;;;5007314;28;20038;-78
2023/12/14 14:10:54;;;;;;;1.50;1.20;;;;;;;;;;5016296;28;20033;-78
2023/12/14 14:13:21;;;;;;;4.35;2.03;;;;;;;;;;5011181;28;20116;-78
2023/12/14 14:15:47;;;;;;;7.10;2.63;;;;;;;;;;5005072;28;20037;-78
2023/12/14 14:18:13;;;;;;;3.20;2.08;;;;;;;;;;4990147;28;20044;-78
2023/12/14 14:20:38;;;;;;;3.53;2.30;;;;;;;;;;5020744;28;20037;-77
2023/12/14 14:23:04;;;;;;;2.78;2.33;;;;;;;;;;5009102;28;20040;-78
2023/12/14 14:25:30;;;;;;;1.40;1.30;;;;;;;;;;5000240;28;20034;-78
2023/12/14 14:27:55;;;;;;;4.75;2.50;;;;;;;;;;4980028;28;20041;-78
2023/12/14 14:30:21;;;;;;;3.33;2.20;;;;;;;;;;4987603;28;20060;-78
2023/12/14 14:32:46;;;;;;;3.67;2.88;;;;;;;;;;4991913;28;20041;-78
2023/12/14 14:35:11;;;;;;;1.33;1.20;;;;;;;;;;5009709;28;20094;-78
2023/12/14 14:37:37;;;;;;;3.88;3.15;;;;;;;;;;5006132;28;20553;-78